Time;durP1;ratioP1;P1;durP2;ratioP2;P2;SDS_P1;SDS_P2;PMS_P1;PMS_P2;Temp;Humidity;BMP_temperature;BMP_pressure;BME280_temperature;BME280_humidity;BME280_pressure;Samples;Min_cycle;Max_cycle;Signal;HPM_P1;HPM_P2
2024/02/02 00:01:53;;;;;;;54.38;5.20;;;4.40;99.90;;;2.88;95.43;101994.75;4806892;29;20207;-85
2024/02/02 00:04:32;;;;;;;;;;;;;;;;;;;;;
2024/02/02 00:07:03;;;;;;;44.20;5.63;;;4.30;99.90;;;2.79;95.61;101980.84;4812727;29;20041;-87
2024/02/02 00:10:16;;;;;;;34.58;4.28;;;4.20;99.90;;;2.70;95.55;101971.25;4811124;29;20038;-86
2024/02/02 00:12:55;;;;;;;55.20;5.75;;;;;;;2.69;96.84;101968.63;4851669;29;20045;-86
2024/02/02 00:15:21;;;;;;;56.70;5.20;;;;;;;2.68;96.85;101967.78;4870937;29;20045;-85
2024/02/02 00:18:12;;;;;;;38.10;4.70;;;;;;;2.71;97.24;101961.72;4872249;29;20041;-86
2024/02/02 00:20:41;;;;;;;49.63;5.05;;;;;;;2.73;97.12;101965.19;4861410;29;20033;-86
2024/02/02 00:23:19;;;;;;;41.30;3.78;;;;;;;2.72;97.28;101973.84;4909616;29;20044;-86
2024/02/02 00:25:45;;;;;;;55.17;5.25;;;;;;;2.71;97.32;101966.91;4897048;29;20040;-85
2024/02/02 00:28:24;;;;;;;49.08;5.07;;;;;;;2.72;96.75;101981.66;4900899;29;20092;-86
2024/02/02 00:31:33;;;;;;;43.58;4.80;;;;;;;2.72;96.83;101984.25;4924829;29;20058;-87
2024/02/02 00:34:14;;;;;;;37.72;4.05;;;;;;;2.70;96.96;101985.97;4941248;29;20043;-86
2024/02/02 00:36:55;;;;;;;38.90;4.00;;;4.20;99.90;;;2.71;96.74;101992.94;4936155;29;20042;-86
2024/02/02 00:39:33;;;;;;;44.72;4.85;;;4.20;99.90;;;2.69;96.20;101995.50;4954000;28;20116;-86
2024/02/02 00:42:45;;;;;;;45.83;4.43;;;4.20;99.90;;;2.65;96.33;101993.75;4940064;29;20046;-86
2024/02/02 00:46:13;;;;;;;49.75;4.30;;;4.10;99.90;;;2.58;95.91;101989.38;4935389;29;20624;-86
2024/02/02 00:52:03;;;;;;;44.55;5.10;;;;;;;2.39;96.42;101985.78;4949469;29;20050;-85
2024/02/02 00:54:32;;;;;;;40.25;4.20;;;;;;;2.34;96.50;101996.13;4940107;29;20051;-86
2024/02/02 00:57:27;;;;;;;38.17;4.03;;;;;;;2.34;96.34;101998.72;4955167;28;20043;-85
2024/02/02 00:59:53;;;;;;;51.35;4.70;;;;;;;2.33;96.68;102001.31;4954756;29;20035;-85
2024/02/02 01:02:43;;;;;;;49.88;5.55;;;3.80;99.90;;;2.33;96.61;101998.72;4940171;29;20032;-87
2024/02/02 01:05:13;;;;;;;37.65;4.65;;;3.80;99.90;;;2.28;96.65;101995.22;4937967;29;20031;-86
2024/02/02 01:08:52;;;;;;;42.28;4.72;;;3.80;99.90;;;2.25;96.86;102011.66;4938855;29;20043;-88
2024/02/02 01:11:33;;;;;;;31.85;3.72;;;;;;;2.19;96.57;102004.69;4918299;29;20047;-86
2024/02/02 01:14:42;;;;;;;36.97;3.10;;;;;;;2.18;96.66;102002.94;4936990;29;20040;-87
2024/02/02 01:17:45;;;;;;;36.15;4.03;;;;;;;2.14;96.55;101997.69;4899914;29;20610;-86
2024/02/02 01:20:47;;;;;;;;;;;;;;;;;;;;;
2024/02/02 01:23:14;;;;;;;40.55;4.30;;;;;;;2.08;98.15;102000.25;4904293;29;20034;-86
2024/02/02 01:28:34;;;;;;;44.95;5.05;;;;;;;2.10;97.98;102003.75;5031196;28;20053;-87
2024/02/02 01:31:04;;;;;;;42.20;4.35;;;;;;;2.09;98.59;102008.03;5033991;28;20503;-86
2024/02/02 01:34:15;;;;;;;31.95;3.63;;;;;;;2.14;99.28;102002.88;5034367;28;20037;-89
2024/02/02 01:37:13;;;;;;;40.15;3.67;;;3.60;99.90;;;2.07;100.00;101986.38;5016518;28;20133;-85
2024/02/02 01:40:25;;;;;;;54.75;4.90;;;3.70;99.90;;;2.14;100.00;102008.97;5010509;28;20029;-86
2024/02/02 01:43:03;;;;;;;60.92;5.85;;;3.60;99.90;;;2.17;100.00;102011.59;5025812;28;20407;-85
2024/02/02 01:45:44;;;;;;;44.83;3.85;;;3.70;99.90;;;2.17;100.00;102014.19;5044879;23;20052;-86
2024/02/02 01:48:24;;;;;;;31.52;4.03;;;;;;;2.20;100.00;102016.81;5033067;28;20360;-85
2024/02/02 01:51:05;;;;;;;45.40;4.93;;;3.70;99.90;;;2.22;100.00;102006.41;5050621;28;20039;-86
2024/02/02 01:53:43;;;;;;;36.83;3.95;;;;;;;2.24;100.00;102008.16;5052510;28;20043;-87
2024/02/02 01:56:35;;;;;;;;;;;;;;;;;;;;;
2024/02/02 01:59:37;;;;;;;43.25;4.65;;;3.80;99.90;;;2.28;100.00;102016.88;5029042;28;20033;-86
2024/02/02 02:02:15;;;;;;;44.13;4.00;;;;;;;2.31;100.00;102008.22;4954119;29;20039;-86
2024/02/02 02:11:06;;;;;;;46.30;4.07;;;;;;;2.26;100.00;102006.47;4966743;28;20481;-86
2024/02/02 02:13:44;;;;;;;40.40;4.45;;;;;;;2.26;100.00;102006.47;4929423;29;20040;-85
2024/02/02 02:16:34;;;;;;;42.72;4.07;;;3.80;99.90;;;2.30;100.00;102001.31;4921247;29;20644;-85
2024/02/02 02:19:04;;;;;;;38.72;4.82;;;;;;;2.31;100.00;102008.22;4906581;29;20468;-86
2024/02/02 02:21:52;;;;;;;33.90;4.78;;;3.80;99.90;;;2.29;100.00;101991.75;4897995;29;20491;-86
2024/02/02 02:24:21;;;;;;;51.47;4.72;;;;;;;2.33;100.00;102002.19;4889643;29;20040;-87
2024/02/02 02:26:47;;;;;;;56.42;5.40;;;;;;;2.36;100.00;101997.03;5090395;23;20044;-88
2024/02/02 02:29:26;;;;;;;39.38;4.15;;;;;;;2.41;100.00;102002.25;5077742;28;20042;-85
2024/02/02 02:32:06;;;;;;;42.17;5.28;;;;;;;2.43;100.00;101995.34;5073186;28;20037;-86
2024/02/02 02:34:44;;;;;;;40.20;4.53;;;4.00;99.90;;;2.51;100.00;102000.59;5073984;28;20037;-86
2024/02/02 02:37:22;;;;;;;44.95;4.60;;;;;;;2.54;100.00;102001.47;5039818;28;20035;-86
2024/02/02 02:40:19;;;;;;;;;;;;;;;;;;;;;
2024/02/02 02:43:04;;;;;;;39.78;4.47;;;4.10;99.90;;;2.66;100.00;102001.56;5058147;28;20454;-86
2024/02/02 02:45:30;;;;;;;43.88;5.32;;;4.10;99.90;;;2.70;100.00;102006.78;5059422;23;20029;-86
2024/02/02 02:48:05;;;;;;;50.15;5.50;;;4.20;99.90;;;2.77;100.00;102005.97;5041619;28;20024;-85
2024/02/02 02:50:33;;;;;;;50.28;5.18;;;4.20;99.90;;;2.81;100.00;102002.53;5052546;28;20395;-87
2024/02/02 02:53:26;;;;;;;39.67;5.43;;;4.30;99.90;;;2.85;100.00;102001.66;5035703;28;20101;-86
2024/02/02 02:56:04;;;;;;;38.60;6.05;;;;;;;2.86;100.00;102004.28;4977182;28;20053;-86
2024/02/02 02:58:33;;;;;;;54.83;5.95;;;;;;;2.87;100.00;101997.34;4963256;28;20070;-86
2024/02/02 03:01:25;;;;;;;43.70;4.88;;;4.40;99.90;;;2.93;100.00;101994.78;4980652;28;20039;-86
2024/02/02 03:10:43;;;;;;;48.38;5.75;;;4.50;99.90;;;3.01;100.00;101987.03;4961757;28;20045;-86
2024/02/02 03:13:28;;;;;;;49.67;6.43;;;;;;;3.03;100.00;101980.97;4929749;29;20418;-86
2024/02/02 03:16:35;;;;;;;62.60;6.40;;;4.50;99.90;;;3.05;100.00;101983.56;4961505;28;20043;-86
2024/02/02 03:19:01;;;;;;;;;;;4.50;99.90;;;3.04;100.00;101971.41;4942277;28;20047;-85
2024/02/02 03:21:27;;;;;;;55.50;6.50;;;4.50;99.90;;;3.05;100.00;101975.78;4942602;28;19974;-87
2024/02/02 03:27:26;;;;;;;;;;;;;;;;;;;;;
2024/02/02 03:30:16;;;;;;;52.30;5.72;;;4.60;99.90;;;3.16;100.00;101996.63;5022145;28;20051;-85
2024/02/02 03:32:55;;;;;;;46.50;5.75;;;4.60;99.90;;;3.14;100.00;101983.59;5014574;28;20022;-85
2024/02/02 03:35:21;;;;;;;57.65;6.25;;;;;;;3.19;100.00;101981.88;5003004;28;20029;-86
2024/02/02 03:38:15;;;;;;;49.60;6.70;;;4.70;99.90;;;3.22;100.00;101976.72;5018383;28;20453;-86
2024/02/02 03:40:55;;;;;;;47.58;5.72;;;;;;;3.28;100.00;101981.94;4995722;28;20052;-86
2024/02/02 03:43:33;;;;;;;38.78;5.00;;;4.70;99.90;;;3.28;100.00;101975.84;5006645;28;20096;-86
2024/02/02 03:46:44;;;;;;;48.65;5.78;;;;;;;3.29;100.00;101972.38;5051357;23;20037;-86
2024/02/02 03:49:13;;;;;;;44.45;6.35;;;;;;;3.28;100.00;101970.63;4963022;28;20106;-87
2024/02/02 03:52:05;;;;;;;54.33;6.70;;;4.80;99.90;;;3.32;100.00;101974.13;4965635;28;20405;-86
2024/02/02 03:54:32;;;;;;;52.35;6.95;;;;;;;3.31;100.00;101981.06;4950551;28;20045;-86
2024/02/02 03:57:13;;;;;;;55.05;6.07;;;4.80;99.90;;;3.32;100.00;101980.19;4963071;28;20037;-86
2024/02/02 04:00:25;;;;;;;49.10;6.53;;;4.80;99.90;;;3.32;100.00;101972.38;4948776;28;20097;-87
2024/02/02 04:03:06;;;;;;;49.83;6.15;;;;;;;3.30;100.00;101974.09;4948464;28;20034;-88
2024/02/02 04:12:37;;;;;;;53.58;7.00;;;4.80;99.90;;;3.34;100.00;101973.25;4903099;29;20101;-88
2024/02/02 04:15:04;;;;;;;58.55;6.45;;;4.80;99.90;;;3.36;100.00;101970.66;4889899;29;20839;-86
2024/02/02 04:18:13;;;;;;;49.45;7.13;;;;;;;3.37;100.00;101965.47;4882957;29;20523;-86
2024/02/02 04:20:54;;;;;;;53.65;6.88;;;;;;;3.37;100.00;101955.06;4887340;29;20045;-86
2024/02/02 04:23:36;;;;;;;42.70;5.35;;;;;;;3.38;100.00;101948.97;4868217;29;20040;-86
2024/02/02 04:26:44;;;;;;;49.58;5.70;;;4.80;99.90;;;3.40;100.00;101952.47;4997409;23;20040;-86
2024/02/02 04:29:25;;;;;;;56.53;7.07;;;;;;;3.37;100.00;101947.25;4978400;28;20030;-87
2024/02/02 04:32:34;;;;;;;48.28;6.80;;;4.90;99.90;;;3.41;100.00;101949.00;4977907;28;20034;-88
2024/02/02 04:38:17;;;;;;;45.80;6.57;;;;;;;3.40;100.00;101926.41;4972775;28;20440;-87
2024/02/02 04:44:07;;;;;;;45.70;5.88;;;4.90;99.90;;;3.44;100.00;101909.94;4984267;28;20074;-88
2024/02/02 04:46:45;;;;;;;40.78;6.75;;;;;;;3.47;100.00;101917.75;5054014;23;20130;-86
2024/02/02 04:53:26;;;;;;;43.30;6.15;;;;;;;3.51;100.00;101915.16;4988091;28;20106;-87
2024/02/02 04:56:04;;;;;;;45.45;6.60;;;4.90;99.90;;;3.53;100.00;101910.81;4935243;29;20527;-86
2024/02/02 04:59:15;;;;;;;42.67;7.55;;;;;;;3.55;100.00;101912.56;4917337;29;20707;-86
2024/02/02 05:01:44;;;;;;;46.00;8.70;;;;;;;3.55;100.00;101901.28;4870066;29;20056;-86
2024/02/02 05:04:35;;;;;;;45.70;7.80;;;5.00;99.90;;;3.54;100.00;101900.38;4887917;29;20037;-86
2024/02/02 05:07:33;;;;;;;34.03;7.43;;;5.00;99.90;;;3.58;100.00;101901.28;5077345;23;20033;-86
2024/02/02 05:13:42;;;;;;;46.67;8.73;;;;;;;3.61;100.00;101886.53;4961402;28;20124;-86
2024/02/02 05:16:35;;;;;;;47.35;9.23;;;5.10;99.90;;;3.64;100.00;101885.66;4946956;28;20035;-86
2024/02/02 05:19:04;;;;;;;59.42;10.38;;;5.10;99.90;;;3.63;100.00;101881.31;4854830;29;20045;-86
2024/02/02 05:22:16;;;;;;;53.28;10.02;;;5.10;99.90;;;3.64;100.00;101880.44;4852679;29;20113;-86
2024/02/02 05:27:16;;;;;;;48.97;11.93;;;5.10;99.90;;;3.66;100.00;101883.91;5086599;22;20056;-85
2024/02/02 05:29:44;;;;;;;58.70;12.75;;;5.10;99.90;;;3.64;100.00;101883.06;5036948;28;20593;-85
2024/02/02 05:32:36;;;;;;;54.53;12.63;;;5.10;99.90;;;3.62;100.00;101883.03;5035004;28;20033;-86
2024/02/02 05:35:06;;;;;;;58.13;12.52;;;;;;;3.66;100.00;101882.19;4982694;28;20038;-86
2024/02/02 05:38:11;;;;;;;;;;;;;;;;;;;;;
2024/02/02 05:40:37;;;;;;;50.42;11.70;;;;;;;3.69;100.00;101889.13;4989918;28;20416;-86
2024/02/02 05:43:04;;;;;;;49.22;12.65;;;5.20;99.90;;;3.67;100.00;101896.06;4980088;28;20042;-85
2024/02/02 05:45:54;;;;;;;57.40;12.48;;;5.10;99.90;;;3.68;100.00;101892.59;5001523;23;20518;-87
2024/02/02 05:48:23;;;;;;;52.67;13.05;;;5.10;99.90;;;3.65;100.00;101895.19;5037458;28;20039;-86
2024/02/02 05:51:33;;;;;;;52.95;11.25;;;5.10;99.90;;;3.70;100.00;101891.72;5038110;28;20037;-86
2024/02/02 05:54:45;;;;;;;49.78;10.35;;;5.10;99.90;;;3.69;100.00;101889.13;4954615;28;20041;-86
2024/02/02 05:57:23;;;;;;;35.03;7.95;;;5.20;99.90;;;3.70;100.00;101886.53;4899375;29;20040;-88
2024/02/02 06:03:15;;;;;;;41.28;9.32;;;;;;;3.72;100.00;101872.66;4894740;29;20529;-85
2024/02/02 06:06:27;;;;;;;;;;;;;;;;;;;;;
2024/02/02 06:09:27;;;;;;;42.30;7.95;;;5.20;99.90;;;3.73;100.00;101870.03;5032218;28;20396;-85
2024/02/02 06:12:06;;;;;;;25.95;7.45;;;;;;;3.74;100.00;101865.66;5012852;28;20038;-86
2024/02/02 06:18:16;;;;;;;50.35;7.95;;;;;;;3.76;100.00;101853.50;5012532;28;20519;-86
2024/02/02 06:21:24;;;;;;;33.85;6.38;;;5.20;99.90;;;3.73;100.00;101849.19;4996720;28;20496;-86
2024/02/02 06:24:07;;;;;;;39.45;7.18;;;;;;;3.74;100.00;101845.72;4995486;28;20328;-86
2024/02/02 06:26:44;;;;;;;41.08;6.47;;;5.20;99.90;;;3.74;100.00;101837.91;5048476;23;20078;-86
2024/02/02 06:29:13;;;;;;;42.60;7.25;;;;;;;3.75;100.00;101834.41;5017241;28;20025;-87
2024/02/02 06:32:39;;;;;;;43.83;7.10;;;5.20;99.90;;;3.79;100.00;101824.88;5034353;28;20029;-86
2024/02/02 06:35:44;;;;;;;;;;;;;;;;;;;;;
2024/02/02 06:38:13;;;;;;;40.75;8.07;;;5.20;99.90;;;3.77;100.00;101806.63;4962759;28;20053;-86
2024/02/02 06:41:23;;;;;;;35.92;7.70;;;;;;;3.80;100.00;101809.25;4973281;28;20034;-86
2024/02/02 06:44:35;;;;;;;46.08;7.80;;;5.30;99.90;;;3.80;100.00;101809.25;4968669;28;20085;-85
2024/02/02 06:47:04;;;;;;;49.30;7.78;;;5.30;99.90;;;3.82;100.00;101810.13;4956586;28;20046;-85
2024/02/02 06:49:42;;;;;;;48.80;8.05;;;;;;;3.85;100.00;101812.72;4956836;28;20487;-86
2024/02/02 06:52:08;;;;;;;47.90;7.63;;;5.30;99.90;;;3.87;100.00;101803.16;4955551;28;20047;-86
2024/02/02 06:54:45;;;;;;;39.60;7.13;;;5.30;99.90;;;3.90;100.00;101805.72;4950269;28;20023;-84
2024/02/02 06:57:44;;;;;;;36.72;7.70;;;5.40;99.90;;;3.93;100.00;101802.28;4971586;28;20031;-87
2024/02/02 07:00:36;;;;;;;37.88;7.30;;;;;;;3.94;100.00;101797.94;4935831;29;20071;-85
2024/02/02 07:06:12;;;;;;;34.97;7.25;;;;;;;3.97;100.00;101795.31;4994192;23;20052;-85
2024/02/02 07:08:38;;;;;;;38.40;7.07;;;5.40;99.90;;;3.99;100.00;101793.56;5024779;28;20037;-88
2024/02/02 07:15:05;;;;;;;35.25;6.95;;;5.50;99.90;;;4.07;100.00;101810.91;5034239;28;20037;-85
2024/02/02 07:18:43;;;;;;;37.17;8.50;;;5.50;99.90;;;4.06;100.00;101795.28;5004826;28;20064;-87
2024/02/02 07:31:36;;;;;;;52.70;11.70;;;;;;;4.11;100.00;101798.75;4916865;29;20103;-85
2024/02/02 07:35:04;;;;;;;47.80;11.13;;;5.60;99.90;;;4.10;100.00;101797.00;4900582;29;20120;-84
2024/02/02 07:37:55;;;;;;;49.28;11.43;;;5.50;99.90;;;4.14;100.00;101790.91;4850142;29;20183;-87
2024/02/02 07:44:05;;;;;;;45.75;9.55;;;;;;;4.18;100.00;101779.59;4823974;29;20592;-85
2024/02/02 07:47:03;;;;;;;38.08;9.52;;;5.60;99.90;;;4.22;100.00;101785.69;4819279;29;20048;-85
2024/02/02 07:49:29;;;;;;;50.92;9.85;;;5.60;99.90;;;4.19;100.00;101770.03;4830535;29;20039;-87
2024/02/02 07:52:45;;;;;;;;;;;;;;;;;;;;;
2024/02/02 07:55:17;;;;;;;34.67;9.18;;;;;;;4.29;100.00;101769.13;4794461;29;20066;-85
2024/02/02 07:58:43;;;;;;;45.63;7.35;;;5.80;99.90;;;4.35;100.00;101778.69;4779551;29;20069;-84
2024/02/02 08:01:45;;;;;;;35.58;8.20;;;5.80;99.90;;;4.37;100.00;101772.59;4746181;30;20568;-87
2024/02/02 08:04:37;;;;;;;33.35;8.73;;;5.80;99.90;;;4.39;100.00;101773.47;4718352;30;20420;-85
2024/02/02 08:07:03;;;;;;;29.88;7.18;;;5.80;99.90;;;4.34;100.00;101766.50;5027252;22;20581;-84
2024/02/02 08:09:29;;;;;;;47.40;8.90;;;5.80;99.90;;;4.37;100.00;101756.09;5030921;28;20034;-86
2024/02/02 08:12:05;;;;;;;47.92;9.13;;;5.90;99.90;;;4.43;100.00;101763.88;5019358;28;20383;-85
2024/02/02 08:14:44;;;;;;;38.20;9.88;;;;;;;4.47;100.00;101766.47;5034001;28;20038;-84
2024/02/02 08:17:13;;;;;;;31.50;8.88;;;;;;;4.45;100.00;101756.91;5023372;28;20121;-86
2024/02/02 08:20:08;;;;;;;29.05;7.95;;;5.90;99.90;;;4.47;100.00;101765.56;5032108;28;20419;-87
2024/02/02 08:23:15;;;;;;;30.42;8.05;;;5.90;99.90;;;4.46;100.00;101751.69;5036953;28;20034;-87
2024/02/02 08:25:43;;;;;;;46.33;10.35;;;5.90;99.90;;;4.43;100.00;101743.03;4944008;28;20043;-85
2024/02/02 08:28:35;;;;;;;45.15;9.80;;;5.90;99.90;;;4.46;100.00;101745.59;4951915;28;20034;-87
2024/02/02 08:31:04;;;;;;;40.95;9.23;;;5.90;99.90;;;4.48;100.00;101752.53;4938996;29;20153;-88
2024/02/02 08:33:45;;;;;;;30.73;7.22;;;5.90;99.90;;;4.49;100.00;101753.41;4929790;28;20031;-87
2024/02/02 08:36:53;;;;;;;33.70;8.27;;;5.90;99.90;;;4.44;100.00;101756.03;4935588;28;20049;-87
2024/02/02 08:39:35;;;;;;;37.95;8.80;;;5.90;99.90;;;4.48;100.00;101756.91;4951761;28;20706;-87
2024/02/02 08:42:33;;;;;;;37.78;7.43;;;5.80;99.90;;;4.46;100.00;101748.22;4933679;29;20313;-85
2024/02/02 08:47:34;;;;;;;36.15;7.70;;;5.90;99.90;;;4.40;100.00;101749.09;5024936;28;20046;-82
2024/02/02 08:50:06;;;;;;;43.95;8.45;;;5.90;99.90;;;4.36;100.00;101739.56;5030602;28;20040;-83
2024/02/02 08:52:38;;;;;;;46.33;8.93;;;5.80;99.90;;;4.36;100.00;101723.03;5014126;28;20040;-83
2024/02/02 08:55:49;;;;;;;46.63;8.95;;;5.80;99.90;;;4.36;100.00;101710.88;4998967;28;20445;-80
2024/02/02 08:58:31;;;;;;;39.65;8.95;;;5.90;99.90;;;4.41;100.00;101703.91;5009718;28;20120;-82
2024/02/02 09:01:03;;;;;;;41.92;8.93;;;5.80;99.90;;;4.42;100.00;101689.13;5014649;28;20040;-83
2024/02/02 09:03:53;;;;;;;32.22;7.53;;;5.90;99.90;;;4.39;100.00;101691.75;5014346;28;20103;-83
2024/02/02 09:06:44;;;;;;;45.88;10.10;;;5.90;99.90;;;4.43;100.00;101690.88;5015313;28;20076;-82
2024/02/02 09:09:36;;;;;;;;;;;;;;;;;;;;;
2024/02/02 09:12:03;;;;;;;42.58;10.23;;;5.90;99.90;;;4.40;100.00;101680.44;5014456;28;20395;-81
2024/02/02 09:14:32;;;;;;;39.50;8.20;;;5.80;99.90;;;4.36;100.00;101689.16;5031144;28;20443;-83
2024/02/02 09:17:06;;;;;;;42.03;9.40;;;5.80;99.90;;;4.39;100.00;101696.97;5011640;28;20029;-84
2024/02/02 09:19:45;;;;;;;41.45;9.65;;;5.90;99.90;;;4.39;100.00;101683.94;5013967;28;20073;-82
2024/02/02 09:22:27;;;;;;;41.03;10.27;;;5.90;99.90;;;4.45;100.00;101699.50;5013373;28;20045;-83
2024/02/02 09:24:53;;;;;;;36.55;10.82;;;5.90;99.90;;;4.46;100.00;101685.63;5015685;28;20041;-82
2024/02/02 09:27:35;;;;;;;45.42;10.13;;;5.90;99.90;;;4.42;100.00;101669.13;5030525;28;20128;-83
2024/02/02 09:30:42;;;;;;;42.53;10.65;;;5.90;99.90;;;4.48;100.00;101665.63;5030770;28;20087;-83
2024/02/02 09:33:53;;;;;;;48.85;10.93;;;5.90;99.90;;;4.53;100.00;101663.84;4951327;28;20188;-83
2024/02/02 09:36:37;;;;;;;43.25;10.38;;;6.00;99.90;;;4.58;100.00;101656.84;4894382;29;20078;-83
2024/02/02 09:39:51;;;;;;;28.02;8.20;;;6.00;99.90;;;4.57;100.00;101655.09;4892677;29;20037;-81
2024/02/02 09:42:31;;;;;;;34.00;7.63;;;6.10;99.90;;;4.61;100.00;101677.69;4838559;29;20042;-83
2024/02/02 09:45:20;;;;;;;46.78;12.63;;;6.10;99.90;;;4.70;100.00;101672.41;4839569;29;20053;-83
2024/02/02 09:48:49;;;;;;;43.30;11.25;;;6.20;99.90;;;4.73;100.00;101661.09;4838312;29;20057;-83
2024/02/02 09:51:48;;;;;;;42.92;10.63;;;6.20;99.90;;;4.70;100.00;101658.50;4802580;29;20127;-82
2024/02/02 09:54:56;;;;;;;35.13;9.52;;;6.10;99.90;;;4.66;100.00;101649.81;4802093;29;20153;-83
2024/02/02 09:57:56;;;;;;;44.50;10.68;;;6.10;99.90;;;4.72;100.00;101654.13;4803108;29;20039;-83
2024/02/02 10:01:23;;;;;;;33.88;10.88;;;6.20;99.90;;;4.72;100.00;101638.47;4805202;29;20142;-82
2024/02/02 10:04:36;;;;;;;38.45;10.93;;;6.20;99.90;;;4.76;100.00;101639.34;4820656;29;20034;-83
2024/02/02 10:07:37;;;;;;;33.53;10.30;;;6.20;99.90;;;4.75;100.00;101620.19;4820314;29;20059;-82
2024/02/02 10:10:32;;;;;;;34.25;7.88;;;6.20;99.90;;;4.73;100.00;101621.97;4820027;29;20544;-83
2024/02/02 10:16:56;;;;;;;29.98;8.10;;;6.20;99.90;;;4.70;100.00;101612.41;4837995;29;20046;-81
2024/02/02 10:20:18;;;;;;;40.72;11.68;;;6.20;99.90;;;4.85;100.00;101613.16;4867131;29;20048;-83
2024/02/02 10:23:28;;;;;;;35.53;10.07;;;6.30;99.90;;;4.87;100.00;101611.41;4874922;29;20547;-82
2024/02/02 10:30:43;;;;;;;24.77;9.73;;;6.40;99.90;;;4.86;100.00;101588.78;4912544;29;20040;-83
2024/02/02 10:34:08;;;;;;;29.30;10.02;;;6.30;99.90;;;4.87;100.00;101587.91;4912613;29;20059;-83
2024/02/02 10:37:40;;;;;;;39.17;10.18;;;6.30;99.90;;;4.83;100.00;101586.22;4911603;29;20060;-83
2024/02/02 10:40:52;;;;;;;16.80;6.32;;;6.30;99.90;;;4.72;100.00;101581.09;4912934;29;20083;-82
2024/02/02 10:43:46;;;;;;;36.25;10.75;;;6.30;99.90;;;4.78;100.00;101578.44;4874591;29;20053;-83
2024/02/02 10:46:45;;;;;;;37.15;9.50;;;6.30;99.90;;;4.76;100.00;101582.78;4874438;29;20053;-82
2024/02/02 10:50:14;;;;;;;36.65;11.35;;;6.30;99.90;;;4.82;100.00;101579.28;4858977;29;20052;-82
2024/02/02 10:53:22;;;;;;;26.40;8.05;;;6.30;99.90;;;4.78;100.00;101570.59;4808503;29;20046;-82
2024/02/02 10:56:15;;;;;;;33.85;9.13;;;6.30;99.90;;;4.80;100.00;101566.22;4791193;29;20073;-79
2024/02/02 10:59:58;;;;;;;43.95;12.27;;;6.30;99.90;;;4.86;100.00;101565.28;4799058;29;20042;-78
2024/02/02 11:03:02;;;;;;;31.60;10.63;;;6.30;99.90;;;4.89;100.00;101554.84;4795264;29;20565;-78
2024/02/02 11:06:14;;;;;;;40.72;11.95;;;6.30;99.90;;;4.85;100.00;101540.09;4763940;30;20051;-79
2024/02/02 11:09:24;;;;;;;38.10;10.30;;;6.30;99.90;;;4.90;100.00;101526.13;4745445;30;20028;-78
2024/02/02 11:12:40;;;;;;;33.65;10.18;;;6.40;99.90;;;4.87;100.00;101530.50;4740722;30;20308;-78
2024/02/02 11:15:30;;;;;;;33.38;10.13;;;6.30;99.90;;;4.85;100.00;101519.22;4728672;30;20044;-78
2024/02/02 11:18:24;;;;;;;34.65;10.90;;;6.30;99.90;;;4.93;100.00;101499.13;4729931;30;20038;-81
2024/02/02 11:21:25;;;;;;;35.00;11.48;;;6.40;99.90;;;4.98;100.00;101481.66;4729775;30;20064;-81
2024/02/02 11:24:28;;;;;;;16.33;7.00;;;6.40;99.90;;;4.99;100.00;101495.56;4730710;30;20048;-82
2024/02/02 11:27:32;;;;;;;32.22;11.00;;;6.40;99.90;;;4.94;100.00;101495.63;4730460;30;20552;-80
2024/02/02 11:30:12;;;;;;;27.75;9.98;;;6.40;99.90;;;4.93;100.00;101484.31;4753354;30;20485;-82
2024/02/02 11:33:19;;;;;;;29.15;9.25;;;6.40;99.90;;;4.88;100.00;101486.13;4801668;29;20087;-80
2024/02/02 11:36:16;;;;;;;27.02;10.77;;;6.40;99.90;;;4.94;100.00;101472.13;4837829;29;20061;-80
2024/02/02 11:39:03;;;;;;;23.70;9.40;;;6.40;99.90;;;4.98;100.00;101460.78;4851285;29;20041;-81
2024/02/02 11:41:39;;;;;;;23.10;9.30;;;6.40;99.90;;;4.95;100.00;101458.22;4870063;29;20051;-82
2024/02/02 11:44:18;;;;;;;26.65;8.82;;;6.40;99.90;;;4.91;100.00;101451.31;4931212;29;20036;-81
2024/02/02 11:46:55;;;;;;;22.98;9.32;;;6.40;99.90;;;4.86;100.00;101450.47;4981335;28;20030;-81
2024/02/02 11:49:35;;;;;;;24.30;10.55;;;6.30;99.90;;;4.83;100.00;101448.75;4994233;28;20431;-81
2024/02/02 11:52:36;;;;;;;21.33;7.88;;;6.30;99.90;;;4.73;100.00;101434.97;4976594;28;20401;-81
2024/02/02 11:55:48;;;;;;;23.73;9.88;;;6.20;99.90;;;4.73;100.00;101419.31;4994271;28;20113;-82
2024/02/02 11:58:40;;;;;;;32.92;11.52;;;6.20;99.90;;;4.72;100.00;101414.97;4977768;28;20084;-80
2024/02/02 12:01:25;;;;;;;18.65;7.80;;;6.20;99.90;;;4.65;100.00;101405.50;4983063;28;20133;-81
2024/02/02 12:04:30;;;;;;;16.80;7.80;;;6.10;99.90;;;4.55;100.00;101393.44;5012191;28;20045;-82
2024/02/02 12:07:19;;;;;;;26.60;10.90;;;6.10;99.90;;;4.46;100.00;101383.09;4993680;28;20192;-81
2024/02/02 12:09:58;;;;;;;29.23;12.27;;;6.10;99.90;;;4.53;100.00;101379.53;4994642;28;20068;-81
2024/02/02 12:12:43;;;;;;;20.92;8.82;;;6.10;99.90;;;4.53;100.00;101369.09;4988827;28;20049;-81
2024/02/02 12:15:19;;;;;;;33.63;11.60;;;6.00;99.90;;;4.50;100.00;101371.75;5017079;28;20029;-81
2024/02/02 12:17:44;;;;;;;21.45;10.60;;;6.00;99.90;;;4.46;100.00;101357.03;5016363;28;20060;-80
2024/02/02 12:20:21;;;;;;;21.33;10.52;;;6.00;99.90;;;4.53;100.00;101361.28;5016215;28;20124;-82
2024/02/02 12:22:48;;;;;;;30.27;13.35;;;6.00;99.90;;;4.58;100.00;101356.00;5016846;28;20033;-82
2024/02/02 12:25:24;;;;;;;15.27;6.70;;;6.10;99.90;;;4.57;100.00;101344.72;5016378;28;20025;-80
2024/02/02 12:27:50;;;;;;;28.88;12.88;;;6.00;99.90;;;4.59;100.00;101342.97;5015732;28;20038;-82
2024/02/02 12:30:16;;;;;;;29.33;12.32;;;6.10;99.90;;;4.55;100.00;101337.78;5017046;28;20021;-81
2024/02/02 12:32:53;;;;;;;31.92;11.43;;;6.00;99.90;;;4.52;100.00;101336.94;5000636;28;20514;-81
2024/02/02 12:35:27;;;;;;;24.27;10.93;;;6.00;99.90;;;4.53;100.00;101337.81;5014853;28;20044;-81
2024/02/02 12:37:53;;;;;;;23.85;12.23;;;6.20;99.90;;;4.49;100.00;101330.91;5016254;28;20017;-82
2024/02/02 12:40:22;;;;;;;21.92;11.32;;;6.00;99.90;;;4.50;100.00;101325.69;5015048;28;20087;-81
2024/02/02 12:42:56;;;;;;;25.40;10.57;;;6.00;99.90;;;4.47;100.00;101330.06;5017358;28;20441;-82
2024/02/02 12:45:22;;;;;;;12.50;6.43;;;6.00;99.90;;;4.40;100.00;101316.22;5000058;28;20033;-81
2024/02/02 12:47:47;;;;;;;27.65;11.80;;;6.00;99.90;;;4.46;100.00;101316.16;5018983;28;20029;-82
2024/02/02 12:50:27;;;;;;;27.00;12.15;;;6.00;99.90;;;4.47;100.00;101317.91;5015813;28;20099;-81
2024/02/02 12:52:53;;;;;;;20.48;9.95;;;6.00;99.90;;;4.46;100.00;101307.47;5016449;28;20121;-81
2024/02/02 12:55:20;;;;;;;23.23;10.82;;;6.00;99.90;;;4.47;100.00;101314.41;5016586;28;20047;-81
2024/02/02 12:57:53;;;;;;;27.83;11.98;;;6.00;99.90;;;4.50;100.00;101306.56;5013314;28;20463;-79
2024/02/02 13:00:19;;;;;;;22.92;10.68;;;6.00;99.90;;;4.45;100.00;101297.91;5034919;28;20044;-81
2024/02/02 13:02:45;;;;;;;20.08;9.68;;;6.00;99.90;;;4.45;100.00;101288.38;4996758;28;20083;-81
2024/02/02 13:05:13;;;;;;;30.55;13.88;;;5.90;99.90;;;4.45;100.00;101293.59;5014986;28;20033;-81
2024/02/02 13:07:51;;;;;;;23.83;12.10;;;6.00;99.90;;;4.44;100.00;101288.38;4999143;28;20071;-82
2024/02/02 13:10:45;;;;;;;29.20;14.32;;;6.00;99.90;;;4.47;100.00;101291.81;5015850;28;20038;-81
2024/02/02 13:13:21;;;;;;;29.95;13.60;;;5.90;99.90;;;4.49;100.00;101290.06;5023541;28;20041;-82
2024/02/02 13:15:47;;;;;;;;;;;5.90;99.90;;;4.45;100.00;101277.94;5016151;28;20112;-81
2024/02/02 13:18:16;;;;;;;31.30;13.27;;;5.90;99.90;;;4.42;100.00;101271.88;4999491;28;20042;-81
2024/02/02 13:20:53;;;;;;;24.40;11.35;;;5.90;99.90;;;4.41;100.00;101255.38;5016301;28;20108;-82
2024/02/02 13:23:28;;;;;;;31.75;14.13;;;5.90;99.90;;;4.38;100.00;101252.78;4999210;28;20033;-82
2024/02/02 13:25:58;;;;;;;31.00;14.83;;;5.90;99.90;;;4.44;100.00;101254.47;5017196;28;20131;-82
2024/02/02 13:28:25;;;;;;;15.43;8.40;;;5.90;99.90;;;4.40;100.00;101247.56;5031278;28;20288;-81
2024/02/02 13:31:04;;;;;;;19.73;10.23;;;5.90;99.90;;;4.32;100.00;101238.13;4999758;28;20083;-81